Time;durP1;ratioP1;P1;durP2;ratioP2;P2;SDS_P1;SDS_P2;PMS_P1;PMS_P2;Temp;Humidity;BMP_temperature;BMP_pressure;BME280_temperature;BME280_humidity;BME280_pressure;Samples;Min_cycle;Max_cycle;Signal;HPM_P1;HPM_P2
2022/02/15 00:01:47;;;;;;;9.38;1.85;;;7.50;99.90;;;;;;5054465;28;20048;-85
2022/02/15 00:04:14;;;;;;;7.85;1.63;;;8.00;99.90;;;;;;5022343;28;20444;-85
2022/02/15 00:06:40;;;;;;;8.68;1.75;;;7.10;99.90;;;;;;5023938;28;20059;-85
2022/02/15 00:09:06;;;;;;;9.55;1.80;;;7.30;99.90;;;;;;5035242;28;20041;-85
2022/02/15 00:11:33;;;;;;;9.88;1.75;;;7.10;99.90;;;;;;5019980;28;20029;-82
2022/02/15 00:13:59;;;;;;;10.07;1.90;;;7.90;99.90;;;;;;5016395;28;20140;-81
2022/02/15 00:16:25;;;;;;;14.32;1.75;;;7.10;99.90;;;;;;5068179;28;20128;-80
2022/02/15 00:18:51;;;;;;;14.05;1.85;;;7.10;99.90;;;;;;5035152;28;20048;-81
2022/02/15 00:21:17;;;;;;;11.18;1.98;;;7.10;99.90;;;;;;5032510;28;20045;-81
2022/02/15 00:23:42;;;;;;;10.55;2.15;;;7.10;99.90;;;;;;5051911;28;20106;-81
2022/02/15 00:26:08;;;;;;;13.18;2.20;;;7.00;99.90;;;;;;5051591;28;20041;-82
2022/02/15 00:28:34;;;;;;;12.18;2.00;;;7.10;99.90;;;;;;5052422;28;20033;-81
2022/02/15 00:31:00;;;;;;;9.38;2.00;;;7.60;99.90;;;;;;5052215;28;20048;-81
2022/02/15 00:33:29;;;;;;;11.65;2.08;;;7.10;99.90;;;;;;5052532;28;20040;-81
2022/02/15 00:35:56;;;;;;;9.50;2.33;;;7.10;99.90;;;;;;5031986;28;20084;-80
2022/02/15 00:38:22;;;;;;;9.80;2.28;;;8.00;99.90;;;;;;5058912;28;20130;-80
2022/02/15 00:40:48;;;;;;;13.43;2.30;;;7.10;99.90;;;;;;5036308;28;20488;-80
2022/02/15 00:43:20;;;;;;;14.35;2.47;;;7.50;99.90;;;;;;5040626;28;20504;-80
2022/02/15 00:45:46;;;;;;;11.00;2.35;;;7.20;99.90;;;;;;5032227;28;20081;-81
2022/02/15 00:48:11;;;;;;;13.43;2.58;;;7.20;99.90;;;;;;5022822;28;20048;-81
2022/02/15 00:50:37;;;;;;;14.73;2.78;;;7.20;99.90;;;;;;5034934;28;20064;-81
2022/02/15 00:53:03;;;;;;;18.35;2.65;;;7.10;99.90;;;;;;5035652;28;20045;-81
2022/02/15 00:55:29;;;;;;;13.50;2.17;;;7.20;99.90;;;;;;5033111;28;20170;-80
2022/02/15 00:57:54;;;;;;;15.98;3.10;;;7.30;99.90;;;;;;5029839;28;20124;-81
2022/02/15 01:00:22;;;;;;;10.85;2.08;;;7.90;99.90;;;;;;5033176;28;20128;-81
2022/02/15 01:02:48;;;;;;;11.77;2.35;;;7.20;99.90;;;;;;5050120;28;20037;-81
2022/02/15 01:05:14;;;;;;;16.77;2.20;;;7.40;99.90;;;;;;5051757;28;20412;-81
2022/02/15 01:07:40;;;;;;;14.35;2.58;;;7.20;99.90;;;;;;5051654;28;20127;-81
2022/02/15 01:10:07;;;;;;;10.57;2.20;;;7.30;99.90;;;;;;5051295;28;20032;-81
2022/02/15 01:12:33;;;;;;;14.35;2.20;;;7.20;99.90;;;;;;5035855;28;20114;-81
2022/02/15 01:14:59;;;;;;;14.43;2.90;;;7.20;99.90;;;;;;5016278;28;20049;-81
2022/02/15 01:17:24;;;;;;;17.92;2.95;;;7.30;99.90;;;;;;5053012;28;20439;-81
2022/02/15 01:19:50;;;;;;;22.77;3.75;;;7.30;99.90;;;;;;5035049;28;20040;-81
2022/02/15 01:22:19;;;;;;;19.15;3.13;;;7.20;99.90;;;;;;5051638;28;20044;-81
2022/02/15 01:24:45;;;;;;;13.95;2.30;;;7.30;99.90;;;;;;5051627;28;20036;-80
2022/02/15 01:27:11;;;;;;;14.30;2.55;;;7.30;99.90;;;;;;5034796;28;20073;-80
2022/02/15 01:29:36;;;;;;;19.88;3.33;;;7.30;99.90;;;;;;5031098;28;20409;-80
2022/02/15 01:32:06;;;;;;;20.00;2.80;;;7.30;99.90;;;;;;5032709;28;20044;-80
2022/02/15 01:34:31;;;;;;;22.73;2.92;;;7.30;99.90;;;;;;5031575;28;20068;-81
2022/02/15 01:36:57;;;;;;;14.10;3.03;;;7.30;99.90;;;;;;5045518;28;20092;-80
2022/02/15 01:39:23;;;;;;;12.35;2.70;;;7.30;99.90;;;;;;5039918;28;20041;-81
2022/02/15 01:41:49;;;;;;;17.02;2.90;;;7.30;99.90;;;;;;5048991;28;20405;-80
2022/02/15 01:44:17;;;;;;;25.20;3.15;;;7.30;99.90;;;;;;5029219;28;20049;-81
2022/02/15 01:46:43;;;;;;;22.30;2.72;;;7.40;99.90;;;;;;5033507;28;20045;-81
2022/02/15 01:49:09;;;;;;;13.48;2.95;;;7.40;99.90;;;;;;5049374;28;20048;-81
2022/02/15 01:51:38;;;;;;;18.15;3.13;;;7.40;99.90;;;;;;5052509;28;20037;-81
2022/02/15 01:54:03;;;;;;;17.30;3.00;;;8.20;99.90;;;;;;5034894;28;20056;-81
2022/02/15 01:56:29;;;;;;;15.10;3.35;;;7.40;99.90;;;;;;5017042;28;20053;-80
2022/02/15 01:58:56;;;;;;;19.50;3.08;;;7.30;99.90;;;;;;5052413;28;20044;-80
2022/02/15 02:01:25;;;;;;;20.35;3.35;;;7.50;99.90;;;;;;5031233;28;20503;-79
2022/02/15 02:03:53;;;;;;;16.92;3.05;;;8.40;99.90;;;;;;5042155;28;20052;-80
2022/02/15 02:06:19;;;;;;;17.23;2.63;;;6.80;99.90;;;;;;5049246;28;20041;-80
2022/02/15 02:08:48;;;;;;;11.27;2.97;;;8.20;99.90;;;;;;5041132;28;20251;-80
2022/02/15 02:11:14;;;;;;;15.05;2.67;;;7.50;99.90;;;;;;5038178;28;20045;-80
2022/02/15 02:13:40;;;;;;;14.30;2.67;;;7.40;99.90;;;;;;5055388;28;20041;-79
2022/02/15 02:16:06;;;;;;;14.93;2.88;;;7.40;99.90;;;;;;5032413;28;20043;-80
2022/02/15 02:18:31;;;;;;;11.57;3.22;;;7.40;99.90;;;;;;5021538;28;20060;-81
2022/02/15 02:21:05;;;;;;;19.80;2.85;;;7.30;99.90;;;;;;5055200;28;20523;-81
2022/02/15 02:23:32;;;;;;;14.70;2.70;;;7.40;99.90;;;;;;5037770;28;20029;-81
2022/02/15 02:25:58;;;;;;;13.98;2.40;;;7.30;99.90;;;;;;5021218;28;20037;-81
2022/02/15 02:28:24;;;;;;;19.13;2.58;;;7.30;99.90;;;;;;5064166;28;20083;-81
2022/02/15 02:30:50;;;;;;;19.38;2.83;;;7.40;99.90;;;;;;5054594;28;20041;-81
2022/02/15 02:33:16;;;;;;;11.35;2.50;;;7.30;99.90;;;;;;5055589;28;20095;-81
2022/02/15 02:35:42;;;;;;;14.38;2.83;;;7.30;99.90;;;;;;5035096;28;20041;-80
2022/02/15 02:38:08;;;;;;;12.50;2.63;;;7.30;99.90;;;;;;5054023;28;20123;-81
2022/02/15 02:40:34;;;;;;;11.18;2.38;;;7.10;99.90;;;;;;5055122;28;20101;-81
2022/02/15 02:43:00;;;;;;;15.45;2.30;;;7.40;99.90;;;;;;5054116;28;20102;-81
2022/02/15 02:45:26;;;;;;;15.20;2.85;;;7.30;99.90;;;;;;5053561;28;20033;-81
2022/02/15 02:47:54;;;;;;;19.38;3.30;;;7.30;99.90;;;;;;5021194;28;20045;-81
2022/02/15 02:50:24;;;;;;;17.50;2.72;;;7.30;99.90;;;;;;5027668;28;20127;-81
2022/02/15 02:52:51;;;;;;;18.00;3.00;;;7.30;99.90;;;;;;5045413;28;20187;-80
2022/02/15 02:55:17;;;;;;;24.45;3.92;;;8.20;99.90;;;;;;5037322;28;20056;-80
2022/02/15 02:57:42;;;;;;;15.60;3.25;;;7.30;99.90;;;;;;5055442;28;20044;-81
2022/02/15 03:00:15;;;;;;;16.65;3.20;;;7.30;99.90;;;;;;5033843;28;20158;-81
2022/02/15 03:02:41;;;;;;;15.25;3.28;;;7.30;99.90;;;;;;5036464;28;20409;-81
2022/02/15 03:05:07;;;;;;;22.83;3.42;;;7.40;99.90;;;;;;5053957;28;20056;-81
2022/02/15 03:07:34;;;;;;;20.08;2.72;;;7.20;99.90;;;;;;5052856;28;20403;-81
2022/02/15 03:10:00;;;;;;;19.77;3.03;;;7.30;99.90;;;;;;5047076;28;20493;-81
2022/02/15 03:12:25;;;;;;;20.90;3.30;;;7.30;99.90;;;;;;5033944;28;20049;-81
2022/02/15 03:14:51;;;;;;;17.33;3.00;;;7.30;99.90;;;;;;5046214;28;20044;-81
2022/02/15 03:17:17;;;;;;;13.23;2.80;;;7.30;99.90;;;;;;5037070;28;20484;-81
2022/02/15 03:19:43;;;;;;;13.60;2.78;;;7.30;99.90;;;;;;5053768;28;20090;-81
2022/02/15 03:22:09;;;;;;;19.50;2.72;;;7.20;99.90;;;;;;5054466;28;20049;-81
2022/02/15 03:24:35;;;;;;;12.15;2.75;;;7.70;99.90;;;;;;5052336;28;20044;-81
2022/02/15 03:27:02;;;;;;;18.48;2.97;;;7.70;99.90;;;;;;5020441;28;20041;-81
2022/02/15 03:29:28;;;;;;;13.75;3.05;;;7.20;99.90;;;;;;5045800;28;20052;-81
2022/02/15 03:31:54;;;;;;;13.52;3.08;;;7.20;99.90;;;;;;5053557;28;20471;-81
2022/02/15 03:34:22;;;;;;;16.95;2.72;;;7.20;99.90;;;;;;5054465;28;20123;-81
2022/02/15 03:36:48;;;;;;;11.93;2.78;;;7.20;99.90;;;;;;5021197;28;20509;-81
2022/02/15 03:39:14;;;;;;;14.75;2.90;;;7.30;99.90;;;;;;5046612;28;20060;-81
2022/02/15 03:44:24;;;;;;;10.18;2.65;;;6.60;99.90;;;;;;5039018;28;20062;-81
2022/02/15 03:46:51;;;;;;;16.65;3.40;;;7.20;99.90;;;;;;5033332;28;20037;-81
2022/02/15 03:49:17;;;;;;;19.73;3.03;;;7.20;99.90;;;;;;5066395;28;20601;-81
2022/02/15 03:51:44;;;;;;;16.90;3.10;;;7.20;99.90;;;;;;5033171;28;20040;-81
2022/02/15 03:54:10;;;;;;;12.98;2.40;;;7.20;99.90;;;;;;5057925;28;20133;-81
2022/02/15 03:56:35;;;;;;;18.02;3.08;;;7.20;99.90;;;;;;5052767;28;20044;-81
2022/02/15 03:59:03;;;;;;;11.77;2.65;;;7.20;99.90;;;;;;5030660;28;20041;-82
2022/02/15 04:01:32;;;;;;;15.20;3.15;;;7.50;99.90;;;;;;5052864;28;20103;-82
2022/02/15 04:03:57;;;;;;;16.00;3.03;;;7.30;99.90;;;;;;5036190;28;20056;-81
2022/02/15 04:06:23;;;;;;;16.23;2.70;;;7.20;99.90;;;;;;5052779;28;20037;-81
2022/02/15 04:08:49;;;;;;;16.13;3.05;;;7.20;99.90;;;;;;5016297;28;20037;-81
2022/02/15 04:11:15;;;;;;;10.10;2.80;;;7.20;99.90;;;;;;5018922;28;20402;-81
2022/02/15 04:13:41;;;;;;;10.93;2.38;;;7.20;99.90;;;;;;5034025;28;20473;-81
2022/02/15 04:16:08;;;;;;;9.27;2.40;;;7.20;99.90;;;;;;5036026;28;20091;-81
2022/02/15 04:18:34;;;;;;;15.88;2.55;;;7.40;99.90;;;;;;5037455;28;20074;-80
2022/02/15 04:21:00;;;;;;;14.93;3.15;;;7.20;99.90;;;;;;5036061;28;20056;-80
2022/02/15 04:23:26;;;;;;;12.45;2.42;;;8.30;99.90;;;;;;5035682;28;20049;-80
2022/02/15 04:25:54;;;;;;;13.90;2.40;;;7.60;99.90;;;;;;5053171;28;20036;-80
2022/02/15 04:28:20;;;;;;;16.98;2.85;;;7.20;99.90;;;;;;5051896;28;20040;-80
2022/02/15 04:30:49;;;;;;;12.38;2.17;;;7.20;99.90;;;;;;5030209;28;20037;-80
2022/02/15 04:33:15;;;;;;;16.52;2.92;;;7.20;99.90;;;;;;5018113;28;20045;-80
2022/02/15 04:35:40;;;;;;;20.15;2.70;;;7.20;99.90;;;;;;5047682;28;20056;-80
2022/02/15 04:38:09;;;;;;;10.88;2.53;;;7.20;99.90;;;;;;5011185;28;20037;-79
2022/02/15 04:40:34;;;;;;;17.20;3.08;;;7.20;99.90;;;;;;5053395;28;20048;-80
2022/02/15 04:43:00;;;;;;;12.15;2.78;;;7.20;99.90;;;;;;5051972;28;20036;-80
2022/02/15 04:45:29;;;;;;;11.90;2.85;;;7.40;99.90;;;;;;5031744;28;20030;-80
2022/02/15 04:47:54;;;;;;;14.07;2.75;;;7.20;99.90;;;;;;5022092;28;20077;-80
2022/02/15 04:50:20;;;;;;;17.63;2.72;;;7.60;99.90;;;;;;5015055;28;20119;-80
2022/02/15 04:52:46;;;;;;;11.48;2.40;;;7.20;99.90;;;;;;5032594;28;20042;-80
2022/02/15 04:55:15;;;;;;;14.02;2.70;;;7.20;99.90;;;;;;5032187;28;20076;-80
2022/02/15 04:57:41;;;;;;;20.00;2.65;;;7.10;99.90;;;;;;5052120;28;20094;-80
2022/02/15 05:00:07;;;;;;;15.95;2.60;;;7.20;99.90;;;;;;5051288;28;20484;-80
2022/02/15 05:02:33;;;;;;;12.43;2.60;;;7.20;99.90;;;;;;5034947;28;20052;-80
2022/02/15 05:05:04;;;;;;;12.32;1.90;;;7.20;99.90;;;;;;5038809;28;20103;-81
2022/02/15 05:07:30;;;;;;;14.07;2.35;;;7.20;99.90;;;;;;5032932;28;20052;-80
2022/02/15 05:09:56;;;;;;;12.35;2.17;;;7.20;99.90;;;;;;5048849;28;20041;-80
2022/02/15 05:12:21;;;;;;;12.45;2.33;;;7.20;99.90;;;;;;5035081;28;20036;-80
2022/02/15 05:14:47;;;;;;;11.45;2.25;;;7.20;99.90;;;;;;5052830;28;20037;-81
2022/02/15 05:17:16;;;;;;;12.65;2.13;;;7.20;99.90;;;;;;5051781;28;20131;-81
2022/02/15 05:19:42;;;;;;;10.63;2.47;;;7.30;99.90;;;;;;5048298;28;20037;-81
2022/02/15 05:22:08;;;;;;;9.63;2.45;;;7.10;99.90;;;;;;5034015;28;20039;-81
2022/02/15 05:24:33;;;;;;;15.15;2.45;;;7.10;99.90;;;;;;5051040;28;20489;-81
2022/02/15 05:26:59;;;;;;;14.00;2.72;;;7.20;99.90;;;;;;5051738;28;20037;-81
2022/02/15 05:29:26;;;;;;;15.75;2.85;;;7.20;99.90;;;;;;5051330;28;20040;-81
2022/02/15 05:31:52;;;;;;;14.60;2.95;;;7.30;99.90;;;;;;5051357;28;20072;-81
2022/02/15 05:34:21;;;;;;;13.90;2.53;;;7.10;99.90;;;;;;5051966;28;20048;-81
2022/02/15 05:36:47;;;;;;;13.77;3.08;;;7.20;99.90;;;;;;5049748;28;20101;-81
2022/02/15 05:39:13;;;;;;;18.08;3.33;;;6.90;99.90;;;;;;5039145;28;20074;-81
2022/02/15 05:41:39;;;;;;;9.70;2.92;;;7.10;99.90;;;;;;5051305;28;20068;-82
2022/02/15 05:44:05;;;;;;;14.15;2.83;;;7.10;99.90;;;;;;5034572;28;20068;-80
2022/02/15 05:46:30;;;;;;;15.35;3.42;;;7.10;99.90;;;;;;5031999;28;20118;-81
2022/02/15 05:48:56;;;;;;;11.57;3.08;;;7.10;99.90;;;;;;5042284;28;20041;-81
2022/02/15 05:51:22;;;;;;;15.77;3.28;;;7.20;99.90;;;;;;5050687;28;20037;-81
2022/02/15 05:53:48;;;;;;;13.02;3.42;;;7.50;99.90;;;;;;5016254;28;20044;-81
2022/02/15 05:56:14;;;;;;;19.50;3.83;;;7.20;99.90;;;;;;5051078;28;20052;-81
2022/02/15 05:58:39;;;;;;;18.88;3.83;;;7.10;99.90;;;;;;5034192;28;20047;-81
2022/02/15 06:01:09;;;;;;;19.55;3.78;;;7.10;99.90;;;;;;5034418;28;20477;-80
2022/02/15 06:06:20;;;;;;;13.85;3.55;;;7.10;99.90;;;;;;5031370;28;20044;-78
2022/02/15 06:08:46;;;;;;;20.00;4.47;;;7.10;99.90;;;;;;5050717;28;20536;-77
2022/02/15 06:11:11;;;;;;;14.57;4.35;;;7.10;99.90;;;;;;5046370;28;20044;-78
2022/02/15 06:13:37;;;;;;;17.30;3.88;;;7.60;99.90;;;;;;5050680;28;20044;-77
2022/02/15 06:16:04;;;;;;;11.68;3.80;;;7.10;99.90;;;;;;5050660;28;20037;-78
2022/02/15 06:18:33;;;;;;;15.65;4.43;;;7.10;99.90;;;;;;5035184;28;20033;-77
2022/02/15 06:21:00;;;;;;;19.17;4.10;;;7.10;99.90;;;;;;5034359;28;20489;-77
2022/02/15 06:23:25;;;;;;;18.95;4.80;;;7.10;99.90;;;;;;5050732;28;20489;-81
2022/02/15 06:25:51;;;;;;;16.42;4.53;;;8.10;99.90;;;;;;5014342;28;20029;-78
2022/02/15 06:28:19;;;;;;;12.65;4.63;;;7.10;99.90;;;;;;5027452;28;20037;-77
2022/02/15 06:30:45;;;;;;;22.63;5.03;;;7.10;99.90;;;;;;5050942;28;20033;-79
2022/02/15 06:33:11;;;;;;;21.40;5.75;;;7.10;99.90;;;;;;5017555;28;20098;-80
2022/02/15 06:35:37;;;;;;;18.15;6.05;;;7.10;99.90;;;;;;5017687;28;20041;-80
2022/02/15 06:38:02;;;;;;;20.50;5.65;;;7.10;99.90;;;;;;5050179;28;20044;-80
2022/02/15 06:40:28;;;;;;;22.20;6.40;;;7.10;99.90;;;;;;5049898;28;20398;-80
2022/02/15 06:42:54;;;;;;;23.73;7.22;;;7.20;99.90;;;;;;5030629;28;20140;-80
2022/02/15 06:45:20;;;;;;;24.67;7.97;;;7.10;99.90;;;;;;5048789;28;20036;-79
2022/02/15 06:47:45;;;;;;;20.30;7.75;;;7.10;99.90;;;;;;5033926;28;20055;-79
2022/02/15 06:50:11;;;;;;;24.27;7.55;;;7.60;99.90;;;;;;5036523;28;20041;-80
2022/02/15 06:52:37;;;;;;;17.08;7.22;;;7.50;99.90;;;;;;5037590;28;20044;-80
2022/02/15 06:55:03;;;;;;;22.63;7.43;;;7.10;99.90;;;;;;5077435;28;20451;-80
2022/02/15 06:57:30;;;;;;;25.88;6.93;;;7.20;99.90;;;;;;5019574;28;20048;-81
2022/02/15 06:59:56;;;;;;;24.75;7.10;;;6.70;99.90;;;;;;5018543;28;20511;-81
2022/02/15 07:02:21;;;;;;;22.85;7.30;;;7.10;99.90;;;;;;5000941;28;20045;-82
2022/02/15 07:04:48;;;;;;;23.88;6.88;;;7.80;99.90;;;;;;5033743;28;20060;-81
2022/02/15 07:07:14;;;;;;;18.27;6.68;;;7.00;99.90;;;;;;5048813;28;20124;-80
2022/02/15 07:09:41;;;;;;;25.35;8.13;;;7.80;99.90;;;;;;5053634;28;20037;-80
2022/02/15 07:12:08;;;;;;;25.15;8.25;;;7.00;99.90;;;;;;5053824;28;20045;-80
2022/02/15 07:14:35;;;;;;;21.92;8.48;;;7.00;99.90;;;;;;5016421;28;20044;-79
2022/02/15 07:17:03;;;;;;;27.88;8.32;;;7.00;99.90;;;;;;5041925;28;20405;-80
2022/02/15 07:19:32;;;;;;;22.63;9.23;;;7.00;99.90;;;;;;5033343;28;20045;-81
2022/02/15 07:21:59;;;;;;;26.17;8.48;;;7.50;99.90;;;;;;5035032;28;20046;-81
2022/02/15 07:24:25;;;;;;;23.67;8.38;;;7.00;99.90;;;;;;5031032;28;20033;-81
2022/02/15 07:26:54;;;;;;;26.60;8.88;;;7.80;99.90;;;;;;5035016;28;20044;-77
2022/02/15 07:29:20;;;;;;;26.27;8.88;;;7.80;99.90;;;;;;5035339;28;20040;-82
2022/02/15 07:31:48;;;;;;;22.83;8.13;;;7.60;99.90;;;;;;5052403;28;20044;-80
2022/02/15 07:34:17;;;;;;;23.33;8.80;;;7.00;99.90;;;;;;5052813;28;20049;-80
2022/02/15 07:36:45;;;;;;;26.75;8.98;;;7.90;99.90;;;;;;5035004;28;20034;-79
2022/02/15 07:39:11;;;;;;;20.83;8.88;;;7.00;99.90;;;;;;5047228;28;20119;-82
2022/02/15 07:41:37;;;;;;;23.25;8.85;;;7.00;99.90;;;;;;5055356;28;20080;-83
2022/02/15 07:44:04;;;;;;;27.40;9.85;;;8.00;99.90;;;;;;5075104;28;20121;-79
2022/02/15 07:46:30;;;;;;;23.10;9.60;;;7.10;99.90;;;;;;5017678;28;20048;-78
2022/02/15 07:48:55;;;;;;;26.40;9.75;;;7.10;99.90;;;;;;5054782;28;20041;-78
2022/02/15 07:51:24;;;;;;;32.63;10.05;;;7.10;99.90;;;;;;5029667;28;20075;-78
2022/02/15 07:53:50;;;;;;;30.50;9.88;;;7.10;99.90;;;;;;5022395;28;20049;-79
2022/02/15 07:56:18;;;;;;;25.13;10.55;;;7.10;99.90;;;;;;5036832;28;20044;-79
2022/02/15 07:58:47;;;;;;;29.38;9.93;;;7.20;99.90;;;;;;5036183;28;20052;-84
2022/02/15 08:01:12;;;;;;;23.38;10.45;;;7.20;99.90;;;;;;5035293;28;20044;-82
2022/02/15 08:03:38;;;;;;;24.75;10.07;;;7.90;99.90;;;;;;5043753;28;20041;-84
2022/02/15 08:06:04;;;;;;;31.92;10.18;;;8.20;99.90;;;;;;5050121;28;20038;-79
2022/02/15 08:08:30;;;;;;;25.77;10.07;;;7.30;99.90;;;;;;5032710;28;20048;-79
2022/02/15 08:10:57;;;;;;;26.00;10.35;;;7.80;99.90;;;;;;5048415;28;20029;-76
2022/02/15 08:13:23;;;;;;;33.65;10.77;;;7.30;99.90;;;;;;5052669;28;20052;-74
2022/02/15 08:15:50;;;;;;;29.33;10.10;;;7.30;99.90;;;;;;5028358;28;20077;-83
2022/02/15 08:18:19;;;;;;;26.63;10.43;;;7.50;99.90;;;;;;5042335;28;20111;-82
2022/02/15 08:20:48;;;;;;;29.67;10.35;;;8.10;99.90;;;;;;5062725;28;20048;-81
2022/02/15 08:23:17;;;;;;;26.10;10.18;;;7.30;99.90;;;;;;5034488;28;20443;-83
2022/02/15 08:25:43;;;;;;;27.35;9.20;;;7.40;99.90;;;;;;5035925;28;20044;-81
2022/02/15 08:28:12;;;;;;;24.20;9.95;;;7.70;99.90;;;;;;5035945;28;20037;-83
2022/02/15 08:30:53;;;;;;;26.23;9.55;;;7.50;99.90;;;;;;5052238;28;20041;-83
2022/02/15 08:33:19;;;;;;;28.73;9.68;;;7.50;99.90;;;;;;5035846;28;20049;-76
2022/02/15 08:35:45;;;;;;;23.83;9.68;;;8.20;99.90;;;;;;5032095;28;20371;-78
2022/02/15 08:38:31;;;;;;;26.38;9.68;;;7.70;99.90;;;;;;5023089;28;20091;-80
2022/02/15 08:41:14;;;;;;;27.37;9.97;;;7.60;99.90;;;;;;5016924;28;20061;-83
2022/02/15 08:43:40;;;;;;;32.05;10.05;;;7.50;99.90;;;;;;5033017;28;20158;-81
2022/02/15 08:46:08;;;;;;;24.25;9.32;;;7.60;99.90;;;;;;5019252;28;20396;-79
2022/02/15 08:48:34;;;;;;;28.02;10.18;;;7.60;99.90;;;;;;5036426;28;20091;-80
2022/02/15 08:51:02;;;;;;;23.08;10.07;;;7.90;99.90;;;;;;5034920;28;20444;-80
2022/02/15 08:53:34;;;;;;;25.90;9.98;;;7.70;99.90;;;;;;5035044;28;20037;-80
2022/02/15 08:56:15;;;;;;;31.40;10.02;;;7.70;99.90;;;;;;5035330;28;20067;-82
2022/02/15 08:58:57;;;;;;;22.73;8.82;;;8.40;99.90;;;;;;5029576;28;20401;-81
2022/02/15 09:01:27;;;;;;;26.25;10.30;;;7.70;99.90;;;;;;5031771;28;20102;-87
2022/02/15 09:08:02;;;;;;;22.13;9.10;;;7.70;99.90;;;;;;5044643;28;20036;-88
2022/02/15 09:10:37;;;;;;;32.95;10.60;;;7.70;99.90;;;;;;5034080;28;20053;-83
2022/02/15 09:13:03;;;;;;;29.30;10.93;;;7.90;99.90;;;;;;5031230;28;20045;-82
2022/02/15 09:15:30;;;;;;;26.75;9.95;;;7.80;99.90;;;;;;5030695;28;20049;-81
2022/02/15 09:17:59;;;;;;;34.38;10.73;;;7.80;99.90;;;;;;5031996;28;20504;-82
2022/02/15 09:20:25;;;;;;;32.75;10.27;;;7.80;99.90;;;;;;5031761;28;20068;-83
2022/02/15 09:22:51;;;;;;;27.90;9.30;;;7.80;99.90;;;;;;5031799;28;20052;-82
2022/02/15 09:25:17;;;;;;;26.90;9.43;;;7.80;99.90;;;;;;5030294;28;20037;-82
2022/02/15 09:27:43;;;;;;;26.90;9.35;;;7.80;99.90;;;;;;5014873;28;20041;-82
2022/02/15 09:30:10;;;;;;;21.60;9.05;;;7.80;99.90;;;;;;5030261;28;20037;-83
2022/02/15 09:32:53;;;;;;;;;;;;;;;;;;;;;
2022/02/15 09:35:40;;;;;;;24.42;9.18;;;7.90;99.90;;;;;;5034822;28;20094;-84
2022/02/15 09:38:23;;;;;;;23.23;8.32;;;7.90;99.90;;;;;;5016667;28;20543;-83
2022/02/15 09:41:12;;;;;;;18.90;7.75;;;7.90;99.90;;;;;;5000622;28;20041;-85
2022/02/15 09:43:40;;;;;;;23.65;8.20;;;8.40;99.90;;;;;;5033134;28;20033;-85
2022/02/15 09:46:44;;;;;;;26.80;7.95;;;7.90;99.90;;;;;;5054257;28;20094;-84
2022/02/15 09:49:50;;;;;;;18.25;6.53;;;7.90;99.90;;;;;;5016861;28;20044;-83
2022/02/15 09:52:25;;;;;;;20.00;7.00;;;8.00;99.90;;;;;;5031086;28;20048;-83
2022/02/15 09:54:55;;;;;;;23.40;6.13;;;8.30;99.90;;;;;;5031523;28;20122;-82
2022/02/15 09:57:23;;;;;;;22.80;5.95;;;8.10;99.90;;;;;;5031407;28;20036;-82
2022/02/15 09:59:50;;;;;;;17.65;5.95;;;8.10;99.90;;;;;;5031427;28;20052;-84
2022/02/15 10:02:34;;;;;;;18.20;5.93;;;8.10;99.90;;;;;;5064071;28;20382;-84
2022/02/15 10:05:01;;;;;;;24.73;5.43;;;8.10;99.90;;;;;;5030466;28;20066;-80
2022/02/15 10:07:51;;;;;;;16.85;5.32;;;8.10;99.90;;;;;;5033738;28;20041;-79
2022/02/15 10:10:47;;;;;;;19.27;5.80;;;8.10;99.90;;;;;;5045743;28;20048;-79
2022/02/15 10:13:24;;;;;;;20.80;5.10;;;8.10;99.90;;;;;;5021313;28;20072;-81
2022/02/15 10:15:53;;;;;;;20.67;5.13;;;8.20;99.90;;;;;;5024959;28;20060;-81
2022/02/15 10:18:25;;;;;;;20.08;5.40;;;8.10;99.90;;;;;;5017709;28;20056;-79
2022/02/15 10:20:56;;;;;;;17.20;4.90;;;9.00;99.90;;;;;;5031635;28;20060;-79
2022/02/15 10:23:24;;;;;;;16.23;4.60;;;8.20;99.90;;;;;;5022621;28;20111;-78
2022/02/15 10:25:53;;;;;;;21.75;4.85;;;8.20;99.90;;;;;;5019277;28;20044;-80
2022/02/15 10:28:43;;;;;;;16.45;4.53;;;8.20;99.90;;;;;;5027932;28;20041;-81
2022/02/15 10:31:18;;;;;;;14.70;4.43;;;8.40;99.90;;;;;;5038656;28;20032;-78
2022/02/15 10:34:03;;;;;;;16.35;4.50;;;8.20;99.90;;;;;;5020200;28;20045;-78
2022/02/15 10:36:32;;;;;;;15.38;4.55;;;8.20;99.90;;;;;;5014431;28;20041;-78
2022/02/15 10:39:01;;;;;;;16.05;4.60;;;8.40;99.90;;;;;;5038061;28;20037;-79
2022/02/15 10:41:35;;;;;;;16.63;4.85;;;8.40;99.90;;;;;;5055675;28;20076;-79
2022/02/15 10:44:18;;;;;;;;;;;;;;;;;;;;;
2022/02/15 10:46:55;;;;;;;16.45;4.68;;;8.50;99.90;;;;;;5054214;28;20064;-79
2022/02/15 10:49:22;;;;;;;15.95;4.85;;;8.50;99.90;;;;;;5054446;28;20057;-78
2022/02/15 10:51:56;;;;;;;14.73;4.88;;;8.50;99.90;;;;;;5040026;28;20362;-86
2022/02/15 10:54:25;;;;;;;14.70;4.80;;;8.60;99.90;;;;;;5050958;28;20047;-78
2022/02/15 10:56:53;;;;;;;17.13;4.93;;;8.50;99.90;;;;;;5041887;28;20079;-78
2022/02/15 10:59:28;;;;;;;16.50;4.95;;;8.60;99.90;;;;;;5039412;28;20477;-78
2022/02/15 11:01:57;;;;;;;17.25;5.10;;;8.70;99.90;;;;;;5037165;28;20119;-78
2022/02/15 11:04:37;;;;;;;13.65;4.60;;;8.60;99.90;;;;;;5057470;28;20040;-85
2022/02/15 11:07:06;;;;;;;16.23;5.07;;;8.70;99.90;;;;;;5020025;28;20078;-75
2022/02/15 11:09:40;;;;;;;12.45;4.57;;;8.60;99.90;;;;;;5048627;28;20108;-74
2022/02/15 11:12:22;;;;;;;15.90;4.88;;;8.70;99.90;;;;;;5069462;28;20041;-75
2022/02/15 11:14:52;;;;;;;16.20;4.43;;;8.50;99.90;;;;;;5034336;28;20028;-75
2022/02/15 11:17:18;;;;;;;14.27;4.10;;;8.60;99.90;;;;;;5033653;28;20040;-75
2022/02/15 11:19:44;;;;;;;14.20;4.70;;;8.90;99.90;;;;;;5051487;28;20453;-76
2022/02/15 11:22:20;;;;;;;17.15;4.40;;;8.60;99.90;;;;;;5052288;28;20033;-75
2022/02/15 11:24:46;;;;;;;17.52;4.45;;;8.50;99.90;;;;;;5049467;28;20202;-75
2022/02/15 11:27:20;;;;;;;14.55;4.05;;;8.60;99.90;;;;;;5050121;28;20052;-75
2022/02/15 11:29:56;;;;;;;15.63;4.57;;;8.60;99.90;;;;;;5050487;28;20497;-75
2022/02/15 11:32:25;;;;;;;16.48;4.20;;;8.60;99.90;;;;;;5049829;28;20087;-75
2022/02/15 11:34:51;;;;;;;14.80;3.35;;;9.10;99.90;;;;;;5049542;28;20059;-75
2022/02/15 11:37:19;;;;;;;12.65;3.70;;;8.90;99.90;;;;;;5049651;28;20504;-75
2022/02/15 11:40:10;;;;;;;10.48;3.28;;;8.70;99.90;;;;;;5048500;28;20041;-86
2022/02/15 11:42:47;;;;;;;10.38;3.30;;;8.70;99.90;;;;;;5029787;28;20524;-75
2022/02/15 11:45:23;;;;;;;9.23;3.10;;;8.70;99.90;;;;;;5031378;28;20028;-76
2022/02/15 11:47:49;;;;;;;14.63;3.08;;;8.70;99.90;;;;;;5032674;28;20086;-76
2022/02/15 11:50:16;;;;;;;11.18;2.97;;;8.70;99.90;;;;;;5031545;28;20037;-76
2022/02/15 11:52:44;;;;;;;12.38;3.05;;;8.70;99.90;;;;;;5032841;28;20110;-76
2022/02/15 11:55:13;;;;;;;11.32;2.95;;;8.70;99.90;;;;;;5066210;28;20068;-75
2022/02/15 11:57:41;;;;;;;10.38;2.58;;;8.80;99.90;;;;;;5032488;28;20136;-76
2022/02/15 12:00:08;;;;;;;10.63;2.40;;;8.80;99.90;;;;;;5051828;28;20041;-76
2022/02/15 12:02:34;;;;;;;11.05;2.42;;;8.70;99.90;;;;;;5050448;28;20385;-76
2022/02/15 12:05:04;;;;;;;15.57;3.20;;;8.80;99.90;;;;;;5032891;28;20049;-76
2022/02/15 12:07:30;;;;;;;14.13;2.90;;;8.90;99.90;;;;;;5032506;28;20069;-75
2022/02/15 12:10:05;;;;;;;10.50;2.72;;;8.90;99.90;;;;;;5050590;28;20115;-75
2022/02/15 12:12:39;;;;;;;11.98;2.38;;;9.00;99.90;;;;;;5033127;28;20060;-76
2022/02/15 12:15:07;;;;;;;14.53;2.90;;;9.00;99.90;;;;;;5019338;28;20040;-76
2022/02/15 12:17:40;;;;;;;14.75;2.25;;;9.10;99.90;;;;;;5032733;28;20282;-76
2022/02/15 12:20:07;;;;;;;8.68;1.90;;;9.40;99.90;;;;;;5050786;28;20029;-76
2022/02/15 12:22:39;;;;;;;9.05;2.30;;;9.10;99.90;;;;;;5048785;28;20041;-77
2022/02/15 12:25:08;;;;;;;10.98;3.30;;;9.00;99.90;;;;;;5048161;28;20069;-77
2022/02/15 12:27:34;;;;;;;11.68;2.10;;;9.00;99.90;;;;;;5033371;28;20128;-76
2022/02/15 12:30:00;;;;;;;9.85;1.90;;;9.00;99.90;;;;;;5032609;28;20568;-85
2022/02/15 12:32:34;;;;;;;9.25;2.45;;;9.70;99.90;;;;;;5051022;28;20494;-86
2022/02/15 12:35:06;;;;;;;7.13;1.60;;;9.00;99.90;;;;;;5032100;28;20037;-85
2022/02/15 12:37:32;;;;;;;11.05;1.90;;;9.00;99.90;;;;;;5048711;28;20029;-86
2022/02/15 12:40:00;;;;;;;15.00;2.60;;;9.00;99.90;;;;;;5048259;28;20554;-82
2022/02/15 12:42:30;;;;;;;10.80;2.38;;;8.90;99.90;;;;;;5048017;28;20115;-81
2022/02/15 12:44:58;;;;;;;13.30;1.83;;;8.60;99.90;;;;;;5032527;28;20071;-85
2022/02/15 12:47:35;;;;;;;13.20;1.92;;;8.90;99.90;;;;;;5049352;28;20132;-79
2022/02/15 12:50:04;;;;;;;8.30;2.35;;;8.50;99.90;;;;;;5064639;28;20053;-85
2022/02/15 12:52:33;;;;;;;11.75;1.73;;;8.80;99.90;;;;;;5046368;28;20048;-79
2022/02/15 12:55:16;;;;;;;11.52;2.00;;;8.90;99.90;;;;;;5009623;28;20430;-77
2022/02/15 12:57:48;;;;;;;9.40;1.52;;;8.90;99.90;;;;;;5046362;28;20037;-78
2022/02/15 13:00:16;;;;;;;11.50;1.92;;;8.50;99.90;;;;;;5044562;28;20148;-77
2022/02/15 13:02:58;;;;;;;8.80;1.70;;;8.80;99.90;;;;;;5034820;28;20048;-79
2022/02/15 13:05:46;;;;;;;11.35;1.63;;;8.90;99.90;;;;;;5000881;28;20045;-84